sensor_id;sensor_type;location;lat;lon;timestamp;temperature;humidity
19972;DHT22;10147;16.402;102.848;2024-01-30T00:01:55;21.20;99.90
19972;DHT22;10147;16.402;102.848;2024-01-30T00:04:25;21.10;99.90
19972;DHT22;10147;16.402;102.848;2024-01-30T00:06:55;21.20;99.90
19972;DHT22;10147;16.402;102.848;2024-01-30T00:09:25;21.10;99.90
19972;DHT22;10147;16.402;102.848;2024-01-30T00:11:55;21.00;99.90
19972;DHT22;10147;16.402;102.848;2024-01-30T00:14:25;20.90;99.90
19972;DHT22;10147;16.402;102.848;2024-01-30T00:16:55;20.90;99.90
19972;DHT22;10147;16.402;102.848;2024-01-30T00:19:26;20.90;99.90
19972;DHT22;10147;16.402;102.848;2024-01-30T00:21:56;20.90;99.90
19972;DHT22;10147;16.402;102.848;2024-01-30T00:24:26;20.80;99.90
19972;DHT22;10147;16.402;102.848;2024-01-30T00:26:56;20.90;99.90
19972;DHT22;10147;16.402;102.848;2024-01-30T00:29:25;21.00;99.90
19972;DHT22;10147;16.402;102.848;2024-01-30T00:32:00;21.00;99.90
19972;DHT22;10147;16.402;102.848;2024-01-30T00:34:30;21.10;99.90
19972;DHT22;10147;16.402;102.848;2024-01-30T00:37:01;21.10;99.90
19972;DHT22;10147;16.402;102.848;2024-01-30T00:39:32;21.20;99.90
19972;DHT22;10147;16.402;102.848;2024-01-30T00:42:02;21.50;99.90
19972;DHT22;10147;16.402;102.848;2024-01-30T00:44:35;21.60;99.90
19972;DHT22;10147;16.402;102.848;2024-01-30T00:47:08;21.50;99.90
19972;DHT22;10147;16.402;102.848;2024-01-30T00:49:38;21.50;99.90
19972;DHT22;10147;16.402;102.848;2024-01-30T00:52:08;21.60;99.90
19972;DHT22;10147;16.402;102.848;2024-01-30T00:54:38;21.80;99.90
19972;DHT22;10147;16.402;102.848;2024-01-30T00:57:08;21.70;99.90
19972;DHT22;10147;16.402;102.848;2024-01-30T00:59:38;22.00;99.90
19972;DHT22;10147;16.402;102.848;2024-01-30T01:02:08;21.90;99.90
19972;DHT22;10147;16.402;102.848;2024-01-30T01:04:38;21.80;99.90
19972;DHT22;10147;16.402;102.848;2024-01-30T01:07:08;21.90;99.90
19972;DHT22;10147;16.402;102.848;2024-01-30T01:09:38;22.00;99.90
19972;DHT22;10147;16.402;102.848;2024-01-30T01:12:09;21.90;99.90
19972;DHT22;10147;16.402;102.848;2024-01-30T01:14:39;21.90;99.90
19972;DHT22;10147;16.402;102.848;2024-01-30T01:17:09;21.90;99.90
19972;DHT22;10147;16.402;102.848;2024-01-30T01:19:40;22.20;99.90
19972;DHT22;10147;16.402;102.848;2024-01-30T01:22:10;22.20;99.90
19972;DHT22;10147;16.402;102.848;2024-01-30T01:24:40;22.30;99.90
19972;DHT22;10147;16.402;102.848;2024-01-30T01:27:11;22.20;99.90
19972;DHT22;10147;16.402;102.848;2024-01-30T01:29:41;22.20;99.90
19972;DHT22;10147;16.402;102.848;2024-01-30T01:32:14;22.40;99.90
19972;DHT22;10147;16.402;102.848;2024-01-30T01:34:44;22.40;99.90
19972;DHT22;10147;16.402;102.848;2024-01-30T01:37:14;22.60;99.90
19972;DHT22;10147;16.402;102.848;2024-01-30T01:39:45;22.50;99.90
19972;DHT22;10147;16.402;102.848;2024-01-30T01:42:15;22.40;99.90
19972;DHT22;10147;16.402;102.848;2024-01-30T01:44:48;22.40;99.90
19972;DHT22;10147;16.402;102.848;2024-01-30T01:47:18;22.60;99.90
19972;DHT22;10147;16.402;102.848;2024-01-30T01:49:49;22.50;99.90
19972;DHT22;10147;16.402;102.848;2024-01-30T01:52:19;22.70;99.90
19972;DHT22;10147;16.402;102.848;2024-01-30T01:54:49;23.10;99.90
19972;DHT22;10147;16.402;102.848;2024-01-30T01:57:19;23.10;99.90
19972;DHT22;10147;16.402;102.848;2024-01-30T01:59:50;23.30;99.90
19972;DHT22;10147;16.402;102.848;2024-01-30T02:02:21;23.60;99.90
19972;DHT22;10147;16.402;102.848;2024-01-30T02:04:53;23.50;99.90
19972;DHT22;10147;16.402;102.848;2024-01-30T02:07:24;23.40;99.90
19972;DHT22;10147;16.402;102.848;2024-01-30T02:09:54;23.30;99.90
19972;DHT22;10147;16.402;102.848;2024-01-30T02:12:25;23.30;99.90
19972;DHT22;10147;16.402;102.848;2024-01-30T02:14:54;23.30;99.90
19972;DHT22;10147;16.402;102.848;2024-01-30T02:17:24;23.10;99.90
19972;DHT22;10147;16.402;102.848;2024-01-30T02:19:55;23.10;99.90
19972;DHT22;10147;16.402;102.848;2024-01-30T02:22:25;23.10;99.90
19972;DHT22;10147;16.402;102.848;2024-01-30T02:24:55;23.30;99.90
19972;DHT22;10147;16.402;102.848;2024-01-30T02:27:25;23.50;99.90
19972;DHT22;10147;16.402;102.848;2024-01-30T02:29:55;23.60;99.90
19972;DHT22;10147;16.402;102.848;2024-01-30T02:32:26;23.70;99.90
19972;DHT22;10147;16.402;102.848;2024-01-30T02:34:57;23.60;99.90
19972;DHT22;10147;16.402;102.848;2024-01-30T02:37:28;23.80;99.90
19972;DHT22;10147;16.402;102.848;2024-01-30T02:39:58;23.80;99.90
19972;DHT22;10147;16.402;102.848;2024-01-30T02:42:28;23.70;99.90
19972;DHT22;10147;16.402;102.848;2024-01-30T02:44:58;23.80;99.90
19972;DHT22;10147;16.402;102.848;2024-01-30T02:47:27;23.80;99.90
19972;DHT22;10147;16.402;102.848;2024-01-30T02:49:58;23.90;99.90
19972;DHT22;10147;16.402;102.848;2024-01-30T02:52:28;24.10;99.90
19972;DHT22;10147;16.402;102.848;2024-01-30T02:54:59;24.00;99.90
19972;DHT22;10147;16.402;102.848;2024-01-30T02:57:29;24.10;99.90
19972;DHT22;10147;16.402;102.848;2024-01-30T03:00:00;24.10;99.90
19972;DHT22;10147;16.402;102.848;2024-01-30T03:02:30;24.10;99.90
19972;DHT22;10147;16.402;102.848;2024-01-30T03:05:00;24.10;99.90
19972;DHT22;10147;16.402;102.848;2024-01-30T03:07:30;24.20;99.90
19972;DHT22;10147;16.402;102.848;2024-01-30T03:10:01;24.20;99.90
19972;DHT22;10147;16.402;102.848;2024-01-30T03:12:30;24.10;99.90
19972;DHT22;10147;16.402;102.848;2024-01-30T03:15:00;24.30;99.90
19972;DHT22;10147;16.402;102.848;2024-01-30T03:17:30;24.30;99.90
19972;DHT22;10147;16.402;102.848;2024-01-30T03:20:01;24.20;99.90
19972;DHT22;10147;16.402;102.848;2024-01-30T03:22:31;24.40;99.90
19972;DHT22;10147;16.402;102.848;2024-01-30T03:25:02;24.50;99.90
19972;DHT22;10147;16.402;102.848;2024-01-30T03:27:32;24.70;99.90
19972;DHT22;10147;16.402;102.848;2024-01-30T03:30:02;25.00;99.90
19972;DHT22;10147;16.402;102.848;2024-01-30T03:32:34;25.30;99.90
19972;DHT22;10147;16.402;102.848;2024-01-30T03:35:05;25.40;99.90
19972;DHT22;10147;16.402;102.848;2024-01-30T03:37:35;25.40;99.90
19972;DHT22;10147;16.402;102.848;2024-01-30T03:40:06;25.70;99.90
19972;DHT22;10147;16.402;102.848;2024-01-30T03:42:36;25.80;99.90
19972;DHT22;10147;16.402;102.848;2024-01-30T03:45:07;25.80;99.90
19972;DHT22;10147;16.402;102.848;2024-01-30T03:47:38;26.00;99.90
19972;DHT22;10147;16.402;102.848;2024-01-30T03:50:08;26.10;99.90
19972;DHT22;10147;16.402;102.848;2024-01-30T03:52:39;26.20;99.90
19972;DHT22;10147;16.402;102.848;2024-01-30T03:55:09;26.20;99.90
19972;DHT22;10147;16.402;102.848;2024-01-30T03:57:40;26.00;99.90
19972;DHT22;10147;16.402;102.848;2024-01-30T04:00:11;26.00;99.90
19972;DHT22;10147;16.402;102.848;2024-01-30T04:02:41;26.30;99.90
19972;DHT22;10147;16.402;102.848;2024-01-30T04:05:11;26.50;99.90
19972;DHT22;10147;16.402;102.848;2024-01-30T04:07:42;26.60;99.90
19972;DHT22;10147;16.402;102.848;2024-01-30T04:10:12;26.90;99.90
19972;DHT22;10147;16.402;102.848;2024-01-30T04:12:42;26.90;99.90
19972;DHT22;10147;16.402;102.848;2024-01-30T04:15:12;26.90;99.90
19972;DHT22;10147;16.402;102.848;2024-01-30T04:17:43;27.00;99.90
19972;DHT22;10147;16.402;102.848;2024-01-30T04:20:16;27.00;99.90
19972;DHT22;10147;16.402;102.848;2024-01-30T04:22:47;27.20;99.90
19972;DHT22;10147;16.402;102.848;2024-01-30T04:25:16;27.30;99.90
19972;DHT22;10147;16.402;102.848;2024-01-30T04:27:47;27.50;99.90
19972;DHT22;10147;16.402;102.848;2024-01-30T04:30:17;27.10;99.90
19972;DHT22;10147;16.402;102.848;2024-01-30T04:32:49;27.20;99.90
19972;DHT22;10147;16.402;102.848;2024-01-30T04:35:20;27.40;99.90
19972;DHT22;10147;16.402;102.848;2024-01-30T04:37:53;27.70;99.90
19972;DHT22;10147;16.402;102.848;2024-01-30T04:40:23;27.80;99.90
19972;DHT22;10147;16.402;102.848;2024-01-30T04:42:53;27.60;99.90
19972;DHT22;10147;16.402;102.848;2024-01-30T04:45:23;27.50;99.90
19972;DHT22;10147;16.402;102.848;2024-01-30T04:47:54;27.40;99.90
19972;DHT22;10147;16.402;102.848;2024-01-30T04:50:24;27.50;99.90
19972;DHT22;10147;16.402;102.848;2024-01-30T04:52:56;27.60;99.90
19972;DHT22;10147;16.402;102.848;2024-01-30T04:55:26;27.80;99.90
19972;DHT22;10147;16.402;102.848;2024-01-30T04:57:57;27.60;99.90
19972;DHT22;10147;16.402;102.848;2024-01-30T05:00:27;27.40;99.90
19972;DHT22;10147;16.402;102.848;2024-01-30T05:02:58;27.50;99.90
19972;DHT22;10147;16.402;102.848;2024-01-30T05:05:28;27.70;99.90
19972;DHT22;10147;16.402;102.848;2024-01-30T05:07:58;27.80;99.90
19972;DHT22;10147;16.402;102.848;2024-01-30T05:10:27;28.00;99.90
19972;DHT22;10147;16.402;102.848;2024-01-30T05:12:59;28.00;99.90
19972;DHT22;10147;16.402;102.848;2024-01-30T05:15:29;28.00;99.90
19972;DHT22;10147;16.402;102.848;2024-01-30T05:17:59;28.00;99.90
19972;DHT22;10147;16.402;102.848;2024-01-30T05:20:29;27.80;99.90
19972;DHT22;10147;16.402;102.848;2024-01-30T05:22:59;28.00;99.90
19972;DHT22;10147;16.402;102.848;2024-01-30T05:25:29;27.90;99.90
19972;DHT22;10147;16.402;102.848;2024-01-30T05:27:59;28.20;99.90
19972;DHT22;10147;16.402;102.848;2024-01-30T05:30:29;28.40;99.90
19972;DHT22;10147;16.402;102.848;2024-01-30T05:33:01;28.50;99.90
19972;DHT22;10147;16.402;102.848;2024-01-30T05:35:32;28.60;99.90
19972;DHT22;10147;16.402;102.848;2024-01-30T05:38:02;28.90;99.90
19972;DHT22;10147;16.402;102.848;2024-01-30T05:40:32;28.80;99.90
19972;DHT22;10147;16.402;102.848;2024-01-30T05:43:02;28.70;99.90
19972;DHT22;10147;16.402;102.848;2024-01-30T05:45:32;28.90;99.90
19972;DHT22;10147;16.402;102.848;2024-01-30T05:48:02;29.00;99.90
19972;DHT22;10147;16.402;102.848;2024-01-30T05:50:32;29.10;99.90
19972;DHT22;10147;16.402;102.848;2024-01-30T05:53:02;29.10;99.90
19972;DHT22;10147;16.402;102.848;2024-01-30T05:55:32;29.40;99.90
19972;DHT22;10147;16.402;102.848;2024-01-30T05:58:03;29.50;99.90
19972;DHT22;10147;16.402;102.848;2024-01-30T06:00:33;29.30;99.90
19972;DHT22;10147;16.402;102.848;2024-01-30T06:03:03;29.30;99.90
19972;DHT22;10147;16.402;102.848;2024-01-30T06:05:34;29.30;99.90
19972;DHT22;10147;16.402;102.848;2024-01-30T06:08:04;29.60;99.90
19972;DHT22;10147;16.402;102.848;2024-01-30T06:10:34;29.60;99.90
19972;DHT22;10147;16.402;102.848;2024-01-30T06:13:04;29.70;99.90
19972;DHT22;10147;16.402;102.848;2024-01-30T06:15:34;29.80;99.90
19972;DHT22;10147;16.402;102.848;2024-01-30T06:18:04;29.80;99.90
19972;DHT22;10147;16.402;102.848;2024-01-30T06:20:35;29.50;99.90
19972;DHT22;10147;16.402;102.848;2024-01-30T06:23:05;29.60;99.90
19972;DHT22;10147;16.402;102.848;2024-01-30T06:25:35;30.00;99.90
19972;DHT22;10147;16.402;102.848;2024-01-30T06:28:05;30.00;99.90
19972;DHT22;10147;16.402;102.848;2024-01-30T06:30:35;29.90;99.90
19972;DHT22;10147;16.402;102.848;2024-01-30T06:33:07;29.70;99.90
19972;DHT22;10147;16.402;102.848;2024-01-30T06:35:38;29.90;99.90
19972;DHT22;10147;16.402;102.848;2024-01-30T06:38:12;30.10;99.90
19972;DHT22;10147;16.402;102.848;2024-01-30T06:40:42;30.30;99.90
19972;DHT22;10147;16.402;102.848;2024-01-30T06:43:12;30.30;99.90
19972;DHT22;10147;16.402;102.848;2024-01-30T06:45:42;30.20;99.90
19972;DHT22;10147;16.402;102.848;2024-01-30T06:48:12;30.30;99.90
19972;DHT22;10147;16.402;102.848;2024-01-30T06:50:45;30.30;99.90
19972;DHT22;10147;16.402;102.848;2024-01-30T06:53:17;30.20;99.90
19972;DHT22;10147;16.402;102.848;2024-01-30T06:55:47;30.20;99.90
19972;DHT22;10147;16.402;102.848;2024-01-30T06:58:17;30.20;99.90
19972;DHT22;10147;16.402;102.848;2024-01-30T07:00:47;30.20;99.90
19972;DHT22;10147;16.402;102.848;2024-01-30T07:03:17;29.90;99.90
19972;DHT22;10147;16.402;102.848;2024-01-30T07:05:47;29.90;99.90
19972;DHT22;10147;16.402;102.848;2024-01-30T07:08:18;29.80;99.90
19972;DHT22;10147;16.402;102.848;2024-01-30T07:10:47;29.80;99.90
19972;DHT22;10147;16.402;102.848;2024-01-30T07:13:17;29.80;99.90
19972;DHT22;10147;16.402;102.848;2024-01-30T07:15:47;29.90;99.90
19972;DHT22;10147;16.402;102.848;2024-01-30T07:18:17;29.90;99.90
19972;DHT22;10147;16.402;102.848;2024-01-30T07:20:47;30.10;99.90
19972;DHT22;10147;16.402;102.848;2024-01-30T07:23:19;30.00;99.90
19972;DHT22;10147;16.402;102.848;2024-01-30T07:25:48;29.80;99.90
19972;DHT22;10147;16.402;102.848;2024-01-30T07:28:19;29.70;99.90
19972;DHT22;10147;16.402;102.848;2024-01-30T07:30:50;29.50;99.90
19972;DHT22;10147;16.402;102.848;2024-01-30T07:33:21;29.60;99.90
19972;DHT22;10147;16.402;102.848;2024-01-30T07:35:55;29.60;99.90
19972;DHT22;10147;16.402;102.848;2024-01-30T07:38:26;29.50;99.90
19972;DHT22;10147;16.402;102.848;2024-01-30T07:40:58;29.50;99.90
19972;DHT22;10147;16.402;102.848;2024-01-30T07:43:28;29.60;99.90
19972;DHT22;10147;16.402;102.848;2024-01-30T07:45:59;29.60;99.90
19972;DHT22;10147;16.402;102.848;2024-01-30T07:48:32;29.30;99.90
19972;DHT22;10147;16.402;102.848;2024-01-30T07:51:03;29.20;99.90
19972;DHT22;10147;16.402;102.848;2024-01-30T07:53:33;29.40;99.90
19972;DHT22;10147;16.402;102.848;2024-01-30T07:56:03;29.40;99.90
19972;DHT22;10147;16.402;102.848;2024-01-30T07:58:33;29.40;99.90
19972;DHT22;10147;16.402;102.848;2024-01-30T08:01:04;29.30;99.90
19972;DHT22;10147;16.402;102.848;2024-01-30T08:03:34;29.40;99.90
19972;DHT22;10147;16.402;102.848;2024-01-30T08:06:04;29.40;99.90
19972;DHT22;10147;16.402;102.848;2024-01-30T08:08:34;29.40;99.90
19972;DHT22;10147;16.402;102.848;2024-01-30T08:11:04;29.30;99.90
19972;DHT22;10147;16.402;102.848;2024-01-30T08:13:35;29.20;99.90
19972;DHT22;10147;16.402;102.848;2024-01-30T08:16:05;29.20;99.90
19972;DHT22;10147;16.402;102.848;2024-01-30T08:18:39;29.10;99.90
19972;DHT22;10147;16.402;102.848;2024-01-30T08:21:09;29.20;99.90
19972;DHT22;10147;16.402;102.848;2024-01-30T08:23:39;29.30;99.90
19972;DHT22;10147;16.402;102.848;2024-01-30T08:26:09;29.30;99.90
19972;DHT22;10147;16.402;102.848;2024-01-30T08:28:40;29.10;99.90
19972;DHT22;10147;16.402;102.848;2024-01-30T08:31:11;29.20;99.90
19972;DHT22;10147;16.402;102.848;2024-01-30T08:33:44;29.30;99.90
19972;DHT22;10147;16.402;102.848;2024-01-30T08:36:17;29.10;99.90
19972;DHT22;10147;16.402;102.848;2024-01-30T08:38:47;29.20;99.90
19972;DHT22;10147;16.402;102.848;2024-01-30T08:41:17;29.10;99.90
19972;DHT22;10147;16.402;102.848;2024-01-30T08:43:48;29.00;99.90
19972;DHT22;10147;16.402;102.848;2024-01-30T08:46:19;29.00;99.90
19972;DHT22;10147;16.402;102.848;2024-01-30T08:48:49;29.10;99.90
19972;DHT22;10147;16.402;102.848;2024-01-30T08:51:19;28.90;99.90
19972;DHT22;10147;16.402;102.848;2024-01-30T08:53:49;28.70;99.90
19972;DHT22;10147;16.402;102.848;2024-01-30T08:56:19;28.80;99.90
19972;DHT22;10147;16.402;102.848;2024-01-30T08:58:49;28.90;99.90
19972;DHT22;10147;16.402;102.848;2024-01-30T09:01:19;29.00;99.90
19972;DHT22;10147;16.402;102.848;2024-01-30T09:03:50;28.90;99.90
19972;DHT22;10147;16.402;102.848;2024-01-30T09:06:20;28.90;99.90
19972;DHT22;10147;16.402;102.848;2024-01-30T09:08:50;29.00;99.90
19972;DHT22;10147;16.402;102.848;2024-01-30T09:11:20;28.90;99.90
19972;DHT22;10147;16.402;102.848;2024-01-30T09:13:50;28.90;99.90
19972;DHT22;10147;16.402;102.848;2024-01-30T09:16:20;28.90;99.90
19972;DHT22;10147;16.402;102.848;2024-01-30T09:18:51;28.90;99.90
19972;DHT22;10147;16.402;102.848;2024-01-30T09:21:21;28.90;99.90
19972;DHT22;10147;16.402;102.848;2024-01-30T09:23:54;28.90;99.90
19972;DHT22;10147;16.402;102.848;2024-01-30T09:26:25;28.90;99.90
19972;DHT22;10147;16.402;102.848;2024-01-30T09:28:55;28.70;99.90
19972;DHT22;10147;16.402;102.848;2024-01-30T09:31:25;28.70;99.90
19972;DHT22;10147;16.402;102.848;2024-01-30T09:33:56;28.60;99.90
19972;DHT22;10147;16.402;102.848;2024-01-30T09:36:27;28.60;99.90
19972;DHT22;10147;16.402;102.848;2024-01-30T09:38:57;28.60;99.90
19972;DHT22;10147;16.402;102.848;2024-01-30T09:41:28;28.60;99.90
19972;DHT22;10147;16.402;102.848;2024-01-30T09:44:00;28.60;99.90
19972;DHT22;10147;16.402;102.848;2024-01-30T09:46:32;28.50;99.90
19972;DHT22;10147;16.402;102.848;2024-01-30T09:49:03;28.40;99.90
19972;DHT22;10147;16.402;102.848;2024-01-30T09:51:35;28.40;99.90
19972;DHT22;10147;16.402;102.848;2024-01-30T09:54:05;28.20;99.90
19972;DHT22;10147;16.402;102.848;2024-01-30T09:56:37;28.10;99.90
19972;DHT22;10147;16.402;102.848;2024-01-30T09:59:07;28.10;99.90
19972;DHT22;10147;16.402;102.848;2024-01-30T10:01:39;27.90;99.90
19972;DHT22;10147;16.402;102.848;2024-01-30T10:04:10;28.00;99.90
19972;DHT22;10147;16.402;102.848;2024-01-30T10:06:40;28.10;99.90
19972;DHT22;10147;16.402;102.848;2024-01-30T10:09:12;28.10;99.90
19972;DHT22;10147;16.402;102.848;2024-01-30T10:11:42;28.00;99.90
19972;DHT22;10147;16.402;102.848;2024-01-30T10:14:12;28.00;99.90
19972;DHT22;10147;16.402;102.848;2024-01-30T10:16:45;27.90;99.90
19972;DHT22;10147;16.402;102.848;2024-01-30T10:19:15;27.80;99.90
19972;DHT22;10147;16.402;102.848;2024-01-30T10:21:46;27.90;99.90
19972;DHT22;10147;16.402;102.848;2024-01-30T10:24:17;27.90;99.90
19972;DHT22;10147;16.402;102.848;2024-01-30T10:26:47;27.80;99.90
19972;DHT22;10147;16.402;102.848;2024-01-30T10:29:17;27.70;99.90
19972;DHT22;10147;16.402;102.848;2024-01-30T10:32:04;27.70;99.90
19972;DHT22;10147;16.402;102.848;2024-01-30T10:34:35;27.60;99.90
19972;DHT22;10147;16.402;102.848;2024-01-30T10:37:11;27.50;99.90
19972;DHT22;10147;16.402;102.848;2024-01-30T10:39:45;27.50;99.90
19972;DHT22;10147;16.402;102.848;2024-01-30T10:42:18;27.50;99.90
19972;DHT22;10147;16.402;102.848;2024-01-30T10:45:08;27.50;99.90
19972;DHT22;10147;16.402;102.848;2024-01-30T10:47:42;27.50;99.90
19972;DHT22;10147;16.402;102.848;2024-01-30T10:50:13;27.50;99.90
19972;DHT22;10147;16.402;102.848;2024-01-30T10:52:43;27.50;99.90
19972;DHT22;10147;16.402;102.848;2024-01-30T10:55:14;27.50;99.90
19972;DHT22;10147;16.402;102.848;2024-01-30T10:57:45;27.50;99.90
19972;DHT22;10147;16.402;102.848;2024-01-30T11:00:16;27.40;99.90
19972;DHT22;10147;16.402;102.848;2024-01-30T11:02:47;27.40;99.90
19972;DHT22;10147;16.402;102.848;2024-01-30T11:05:24;27.40;99.90
19972;DHT22;10147;16.402;102.848;2024-01-30T11:08:11;27.30;99.90
19972;DHT22;10147;16.402;102.848;2024-01-30T11:10:48;27.50;99.90
19972;DHT22;10147;16.402;102.848;2024-01-30T11:13:19;27.40;99.90
19972;DHT22;10147;16.402;102.848;2024-01-30T11:15:49;27.40;99.90
19972;DHT22;10147;16.402;102.848;2024-01-30T11:18:26;27.40;99.90
19972;DHT22;10147;16.402;102.848;2024-01-30T11:20:59;27.40;99.90
19972;DHT22;10147;16.402;102.848;2024-01-30T11:23:34;27.40;99.90
19972;DHT22;10147;16.402;102.848;2024-01-30T11:26:05;27.40;99.90
19972;DHT22;10147;16.402;102.848;2024-01-30T11:28:40;27.40;99.90
19972;DHT22;10147;16.402;102.848;2024-01-30T11:31:19;27.40;99.90
19972;DHT22;10147;16.402;102.848;2024-01-30T11:33:52;27.30;99.90
19972;DHT22;10147;16.402;102.848;2024-01-30T11:36:26;27.20;99.90
19972;DHT22;10147;16.402;102.848;2024-01-30T11:38:57;27.20;99.90
19972;DHT22;10147;16.402;102.848;2024-01-30T11:41:28;27.20;99.90
19972;DHT22;10147;16.402;102.848;2024-01-30T11:43:58;27.20;99.90
19972;DHT22;10147;16.402;102.848;2024-01-30T11:46:29;27.20;99.90
19972;DHT22;10147;16.402;102.848;2024-01-30T11:48:59;27.10;99.90
19972;DHT22;10147;16.402;102.848;2024-01-30T11:51:31;27.10;99.90
19972;DHT22;10147;16.402;102.848;2024-01-30T11:54:04;27.00;99.90
19972;DHT22;10147;16.402;102.848;2024-01-30T11:56:38;27.00;99.90
19972;DHT22;10147;16.402;102.848;2024-01-30T11:59:11;27.10;99.90
19972;DHT22;10147;16.402;102.848;2024-01-30T12:01:41;27.00;99.90
19972;DHT22;10147;16.402;102.848;2024-01-30T12:04:11;26.90;99.90
19972;DHT22;10147;16.402;102.848;2024-01-30T12:06:41;26.90;99.90
19972;DHT22;10147;16.402;102.848;2024-01-30T12:09:12;26.90;99.90
19972;DHT22;10147;16.402;102.848;2024-01-30T12:11:46;27.00;99.90
19972;DHT22;10147;16.402;102.848;2024-01-30T12:14:17;26.90;99.90
19972;DHT22;10147;16.402;102.848;2024-01-30T12:16:52;27.00;99.90
19972;DHT22;10147;16.402;102.848;2024-01-30T12:19:24;26.90;99.90
19972;DHT22;10147;16.402;102.848;2024-01-30T12:21:58;26.90;99.90
19972;DHT22;10147;16.402;102.848;2024-01-30T12:24:32;26.80;99.90
19972;DHT22;10147;16.402;102.848;2024-01-30T12:27:03;26.70;99.90
19972;DHT22;10147;16.402;102.848;2024-01-30T12:29:33;26.70;99.90
19972;DHT22;10147;16.402;102.848;2024-01-30T12:32:08;26.70;99.90
19972;DHT22;10147;16.402;102.848;2024-01-30T12:34:41;26.70;99.90
19972;DHT22;10147;16.402;102.848;2024-01-30T12:37:30;26.60;99.90
19972;DHT22;10147;16.402;102.848;2024-01-30T12:40:02;26.60;99.90
19972;DHT22;10147;16.402;102.848;2024-01-30T12:42:32;26.60;99.90
19972;DHT22;10147;16.402;102.848;2024-01-30T12:45:04;26.70;99.90
19972;DHT22;10147;16.402;102.848;2024-01-30T12:47:34;26.60;99.90
19972;DHT22;10147;16.402;102.848;2024-01-30T12:50:04;26.60;99.90
19972;DHT22;10147;16.402;102.848;2024-01-30T12:52:35;26.60;99.90
19972;DHT22;10147;16.402;102.848;2024-01-30T12:55:06;26.60;99.90
19972;DHT22;10147;16.402;102.848;2024-01-30T12:57:35;26.60;99.90
19972;DHT22;10147;16.402;102.848;2024-01-30T13:00:06;26.60;99.90
19972;DHT22;10147;16.402;102.848;2024-01-30T13:02:37;26.60;99.90
19972;DHT22;10147;16.402;102.848;2024-01-30T13:05:07;26.60;99.90
19972;DHT22;10147;16.402;102.848;2024-01-30T13:07:38;26.60;99.90
19972;DHT22;10147;16.402;102.848;2024-01-30T13:10:08;26.60;99.90
19972;DHT22;10147;16.402;102.848;2024-01-30T13:12:38;26.50;99.90
19972;DHT22;10147;16.402;102.848;2024-01-30T13:15:08;26.50;99.90
19972;DHT22;10147;16.402;102.848;2024-01-30T13:17:38;26.50;99.90
19972;DHT22;10147;16.402;102.848;2024-01-30T13:20:09;26.40;99.90
19972;DHT22;10147;16.402;102.848;2024-01-30T13:22:40;26.40;99.90
19972;DHT22;10147;16.402;102.848;2024-01-30T13:25:12;26.30;99.90
19972;DHT22;10147;16.402;102.848;2024-01-30T13:27:42;26.30;99.90
19972;DHT22;10147;16.402;102.848;2024-01-30T13:30:13;26.30;99.90
19972;DHT22;10147;16.402;102.848;2024-01-30T13:32:43;26.30;99.90
19972;DHT22;10147;16.402;102.848;2024-01-30T13:35:13;26.30;99.90
19972;DHT22;10147;16.402;102.848;2024-01-30T13:37:45;26.30;99.90
19972;DHT22;10147;16.402;102.848;2024-01-30T13:40:18;26.30;99.90
19972;DHT22;10147;16.402;102.848;2024-01-30T13:42:48;26.20;99.90
19972;DHT22;10147;16.402;102.848;2024-01-30T13:45:18;26.30;99.90
19972;DHT22;10147;16.402;102.848;2024-01-30T13:47:51;26.30;99.90
19972;DHT22;10147;16.402;102.848;2024-01-30T13:50:23;26.30;99.90
19972;DHT22;10147;16.402;102.848;2024-01-30T13:52:57;26.30;99.90
19972;DHT22;10147;16.402;102.848;2024-01-30T13:55:33;26.30;99.90
19972;DHT22;10147;16.402;102.848;2024-01-30T13:58:07;26.40;99.90
19972;DHT22;10147;16.402;102.848;2024-01-30T14:00:37;26.40;99.90
19972;DHT22;10147;16.402;102.848;2024-01-30T14:03:08;26.40;99.90
19972;DHT22;10147;16.402;102.848;2024-01-30T14:05:39;26.30;99.90
19972;DHT22;10147;16.402;102.848;2024-01-30T14:08:10;26.30;99.90
19972;DHT22;10147;16.402;102.848;2024-01-30T14:10:40;26.20;99.90
19972;DHT22;10147;16.402;102.848;2024-01-30T14:13:10;26.20;99.90
19972;DHT22;10147;16.402;102.848;2024-01-30T14:15:41;26.10;99.90
19972;DHT22;10147;16.402;102.848;2024-01-30T14:18:11;26.10;99.90
19972;DHT22;10147;16.402;102.848;2024-01-30T14:20:41;26.10;99.90
19972;DHT22;10147;16.402;102.848;2024-01-30T14:23:12;26.20;99.90
19972;DHT22;10147;16.402;102.848;2024-01-30T14:25:45;26.20;99.90
19972;DHT22;10147;16.402;102.848;2024-01-30T14:28:16;26.20;99.90
19972;DHT22;10147;16.402;102.848;2024-01-30T14:30:45;26.20;99.90
19972;DHT22;10147;16.402;102.848;2024-01-30T14:33:16;26.10;99.90
19972;DHT22;10147;16.402;102.848;2024-01-30T14:35:46;26.10;99.90
19972;DHT22;10147;16.402;102.848;2024-01-30T14:38:19;26.10;99.90
19972;DHT22;10147;16.402;102.848;2024-01-30T14:40:50;26.20;99.90
19972;DHT22;10147;16.402;102.848;2024-01-30T14:43:20;26.20;99.90
19972;DHT22;10147;16.402;102.848;2024-01-30T14:45:51;26.10;99.90
19972;DHT22;10147;16.402;102.848;2024-01-30T14:48:22;26.20;99.90
19972;DHT22;10147;16.402;102.848;2024-01-30T14:50:52;26.20;99.90
19972;DHT22;10147;16.402;102.848;2024-01-30T14:53:22;26.20;99.90
19972;DHT22;10147;16.402;102.848;2024-01-30T14:55:52;26.30;99.90
19972;DHT22;10147;16.402;102.848;2024-01-30T14:58:23;26.10;99.90
19972;DHT22;10147;16.402;102.848;2024-01-30T15:00:53;26.00;99.90
19972;DHT22;10147;16.402;102.848;2024-01-30T15:03:26;26.00;99.90
19972;DHT22;10147;16.402;102.848;2024-01-30T15:05:57;26.10;99.90
19972;DHT22;10147;16.402;102.848;2024-01-30T15:08:27;26.10;99.90
19972;DHT22;10147;16.402;102.848;2024-01-30T15:10:59;26.00;99.90
19972;DHT22;10147;16.402;102.848;2024-01-30T15:13:29;26.10;99.90
19972;DHT22;10147;16.402;102.848;2024-01-30T15:15:59;26.20;99.90
19972;DHT22;10147;16.402;102.848;2024-01-30T15:18:29;26.20;99.90
19972;DHT22;10147;16.402;102.848;2024-01-30T15:21:00;26.20;99.90
19972;DHT22;10147;16.402;102.848;2024-01-30T15:23:30;26.10;99.90
19972;DHT22;10147;16.402;102.848;2024-01-30T15:26:00;25.80;99.90